Time;durP1;ratioP1;P1;durP2;ratioP2;P2;SDS_P1;SDS_P2;PMS_P1;PMS_P2;Temp;Humidity;BMP_temperature;BMP_pressure;BME280_temperature;BME280_humidity;BME280_pressure;Samples;Min_cycle;Max_cycle;Signal;HPM_P1;HPM_P2
2024/01/13 00:15:08;;;;;;;;;;;;;;;;;;;;;
2024/01/13 03:10:17;;;;;;;79.37;49.70;;;9.80;62.90;;;;;;6220869;23;20186;-96
2024/01/13 03:22:59;;;;;;;111.10;60.23;;;10.50;62.20;;;;;;6215131;23;20195;-96
2024/01/13 03:26:01;;;;;;;110.03;46.07;;;10.10;62.00;;;;;;6216484;23;20172;-96
2024/01/13 03:37:58;;;;;;;115.87;48.37;;;10.30;62.10;;;;;;6215647;23;20172;-95
2024/01/13 03:40:52;;;;;;;77.03;43.20;;;9.70;62.60;;;;;;6219443;23;20173;-96
2024/01/13 03:43:43;;;;;;;92.20;44.60;;;10.40;62.30;;;;;;6218971;23;20199;-96
2024/01/13 03:46:56;;;;;;;81.17;43.33;;;10.00;62.40;;;;;;6217556;23;20247;-96
2024/01/13 03:49:41;;;;;;;66.63;43.63;;;10.40;62.50;;;;;;6218796;23;20186;-96
2024/01/13 03:52:22;;;;;;;91.83;43.50;;;10.20;62.90;;;;;;6218944;23;20187;-96
2024/01/13 04:04:22;;;;;;;106.57;48.30;;;10.30;62.50;;;;;;6182767;23;20229;-96
2024/01/13 04:07:19;;;;;;;101.97;76.77;;;9.80;63.10;;;;;;6068208;23;20222;-96
2024/01/13 04:10:05;;;;;;;93.07;43.77;;;10.20;62.10;;;;;;6042183;23;20207;-96
2024/01/13 09:31:04;;;;;;;76.07;51.30;;;9.80;63.40;;;;;;6201287;22;20226;-96
2024/01/13 09:33:37;;;;;;;90.80;53.07;;;10.20;62.20;;;;;;6256029;23;20166;-96
2024/01/13 09:36:16;;;;;;;83.30;51.07;;;9.80;63.30;;;;;;6267685;22;20198;-96
2024/01/13 09:38:46;;;;;;;81.67;51.83;;;10.50;62.80;;;;;;6268023;22;20172;-96
2024/01/13 09:41:14;;;;;;;100.27;51.07;;;9.80;63.00;;;;;;6268980;22;20178;-96
2024/01/13 09:43:57;;;;;;;97.47;52.30;;;9.70;62.70;;;;;;6270909;22;20171;-96
2024/01/13 09:46:35;;;;;;;74.07;50.87;;;9.40;63.00;;;;;;6271431;22;20178;-96
2024/01/13 09:49:07;;;;;;;85.73;51.87;;;9.80;63.20;;;;;;6270384;22;20216;-96
2024/01/13 09:51:57;;;;;;;60.03;50.93;;;9.80;63.20;;;;;;6264092;23;20197;-96
2024/01/13 09:54:35;;;;;;;94.30;58.13;;;9.80;63.20;;;;;;6258360;23;20178;-96
2024/01/13 09:57:09;;;;;;;104.93;78.83;;;10.00;62.00;;;;;;6257932;22;20207;-96
2024/01/13 09:59:38;;;;;;;91.13;63.53;;;9.80;62.60;;;;;;6257165;23;20248;-96
2024/01/13 10:02:17;;;;;;;74.63;57.07;;;10.60;62.50;;;;;;6256520;23;20171;-96
2024/01/13 10:04:48;;;;;;;96.97;58.27;;;9.80;63.10;;;;;;6256275;23;20171;-96
2024/01/13 10:07:25;;;;;;;82.17;72.37;;;9.90;62.90;;;;;;6259311;23;20172;-96
2024/01/13 10:10:01;;;;;;;80.87;50.23;;;9.90;63.10;;;;;;6267025;23;20168;-96
2024/01/13 10:12:39;;;;;;;111.03;66.63;;;9.90;62.90;;;;;;6267027;23;20166;-96
2024/01/13 10:15:30;;;;;;;84.17;71.10;;;9.90;62.70;;;;;;6268841;22;20229;-96
2024/01/13 10:20:54;;;;;;;101.30;60.30;;;9.90;63.30;;;;;;6257603;22;20184;-96
2024/01/13 10:23:35;;;;;;;128.03;82.07;;;10.00;62.50;;;;;;6229891;23;20179;-96
2024/01/13 10:26:19;;;;;;;112.47;61.30;;;9.60;61.60;;;;;;6256015;23;20207;-96
2024/01/13 10:31:38;;;;;;;106.07;72.40;;;9.90;62.10;;;;;;6246147;22;20195;-96
2024/01/13 10:34:12;;;;;;;107.30;73.00;;;10.20;60.80;;;;;;6248989;23;20171;-96
2024/01/13 10:36:43;;;;;;;85.10;52.53;;;9.90;61.50;;;;;;6248879;23;20213;-96
2024/01/13 10:39:18;;;;;;;96.00;70.07;;;10.00;60.90;;;;;;6248220;23;20623;-96
2024/01/13 10:41:51;;;;;;;70.13;42.50;;;10.00;60.90;;;;;;6246060;23;20173;-96
2024/01/13 10:44:23;;;;;;;100.77;56.47;;;9.00;60.80;;;;;;6245438;23;20178;-96
2024/01/13 10:47:00;;;;;;;127.90;78.13;;;10.60;61.40;;;;;;6249156;23;20197;-96
2024/01/13 10:49:34;;;;;;;84.43;54.97;;;10.10;60.70;;;;;;6246746;23;20177;-96
2024/01/13 10:52:28;;;;;;;95.37;58.93;;;10.10;60.70;;;;;;6246213;23;20585;-96
2024/01/13 10:55:04;;;;;;;108.20;68.97;;;10.10;60.30;;;;;;6235250;23;20175;-96
2024/01/13 10:57:36;;;;;;;86.57;52.00;;;10.10;60.20;;;;;;6246947;23;20648;-96
2024/01/13 11:00:07;;;;;;;105.50;71.73;;;9.50;60.60;;;;;;6248243;23;20181;-96
2024/01/13 11:02:38;;;;;;;114.17;65.70;;;10.00;60.00;;;;;;6248044;23;20468;-96
2024/01/13 11:05:22;;;;;;;107.50;85.60;;;10.00;59.80;;;;;;6248502;23;20197;-96
2024/01/13 11:08:06;;;;;;;103.90;59.10;;;10.10;60.10;;;;;;6247012;23;20185;-96
2024/01/13 11:10:50;;;;;;;101.77;61.43;;;10.70;60.50;;;;;;6250919;23;20247;-96
2024/01/13 11:16:19;;;;;;;156.27;86.63;;;9.60;61.10;;;;;;6246067;23;20206;-96
2024/01/13 11:18:57;;;;;;;149.50;71.43;;;10.00;60.00;;;;;;6254195;23;20232;-96
2024/01/13 11:21:34;;;;;;;120.80;68.23;;;9.90;61.20;;;;;;6261124;23;20175;-96
2024/01/13 11:24:14;;;;;;;172.53;91.10;;;9.90;61.10;;;;;;6260901;22;20191;-96
2024/01/13 11:26:45;;;;;;;103.70;58.97;;;9.90;61.20;;;;;;6259907;23;20178;-96
2024/01/13 11:29:27;;;;;;;122.80;71.53;;;9.90;61.50;;;;;;6256194;23;20171;-96
2024/01/13 11:32:08;;;;;;;112.60;75.03;;;10.90;61.40;;;;;;6256555;22;20204;-96
2024/01/13 11:34:51;;;;;;;103.17;64.67;;;9.80;61.20;;;;;;6245855;23;20181;-96
2024/01/13 11:37:40;;;;;;;130.20;76.07;;;9.90;61.50;;;;;;6255025;23;20218;-96
2024/01/13 11:40:20;;;;;;;95.83;77.07;;;9.90;61.50;;;;;;6263612;23;20201;-96
2024/01/13 11:42:49;;;;;;;133.33;62.00;;;9.90;61.10;;;;;;6252328;23;20177;-96
2024/01/13 11:45:17;;;;;;;106.33;61.63;;;9.70;60.90;;;;;;6222254;23;20186;-96
2024/01/13 11:47:44;;;;;;;110.77;73.50;;;9.90;60.90;;;;;;6250996;23;20233;-96
2024/01/13 11:50:37;;;;;;;109.77;66.90;;;9.80;61.00;;;;;;6251608;23;20179;-96
2024/01/13 11:53:41;;;;;;;108.33;70.63;;;9.90;61.80;;;;;;6249967;23;20172;-96
2024/01/13 11:56:11;;;;;;;108.70;73.23;;;9.90;61.70;;;;;;6250001;23;20216;-96
2024/01/13 11:58:53;;;;;;;112.47;82.63;;;9.90;61.40;;;;;;6250119;23;20241;-96
2024/01/13 12:04:27;;;;;;;78.17;49.70;;;10.50;61.40;;;;;;6249928;23;20175;-96
2024/01/13 12:07:01;;;;;;;82.43;49.83;;;10.00;60.70;;;;;;6249672;23;20181;-96
2024/01/13 12:10:00;;;;;;;116.30;82.17;;;9.90;61.70;;;;;;6249475;23;20181;-96
2024/01/13 12:12:50;;;;;;;90.50;62.40;;;10.00;60.50;;;;;;6221840;23;20694;-96
2024/01/13 12:15:42;;;;;;;85.63;57.03;;;10.00;60.80;;;;;;6245273;22;20171;-96
2024/01/13 12:18:29;;;;;;;79.40;59.80;;;10.00;60.70;;;;;;6242903;23;20173;-96
2024/01/13 12:21:08;;;;;;;105.73;58.33;;;9.90;61.70;;;;;;6267315;22;20155;-96
2024/01/13 12:23:39;;;;;;;80.27;62.77;;;10.00;60.60;;;;;;6265983;23;20151;-96
2024/01/13 12:26:55;;;;;;;103.53;71.13;;;10.00;60.60;;;;;;6267691;23;20163;-96
2024/01/13 12:32:16;;;;;;;95.97;64.63;;;10.00;60.10;;;;;;6264228;23;20193;-96
2024/01/13 12:34:49;;;;;;;94.73;69.43;;;9.90;61.30;;;;;;6265715;23;20173;-96
2024/01/13 12:37:19;;;;;;;72.70;48.10;;;9.80;61.10;;;;;;6264779;22;20209;-96
2024/01/13 12:43:01;;;;;;;115.43;71.50;;;9.30;60.80;;;;;;6263870;23;20193;-96
2024/01/13 12:45:39;;;;;;;104.70;60.40;;;9.50;61.00;;;;;;6259645;23;20177;-96
2024/01/13 12:48:12;;;;;;;106.47;59.90;;;9.90;61.20;;;;;;6253335;23;20186;-96
2024/01/13 12:50:42;;;;;;;111.13;67.70;;;9.90;61.70;;;;;;6253052;23;20575;-96
2024/01/13 12:53:11;;;;;;;96.70;71.90;;;9.60;61.00;;;;;;6253323;23;20178;-96
2024/01/13 12:55:41;;;;;;;102.27;73.37;;;9.90;61.80;;;;;;6225719;23;20186;-96
2024/01/13 12:58:23;;;;;;;149.77;85.43;;;10.00;60.40;;;;;;6225546;23;20187;-96
2024/01/13 13:00:59;;;;;;;127.80;71.10;;;9.90;61.20;;;;;;6254688;23;20231;-96
2024/01/13 13:03:49;;;;;;;101.83;63.63;;;9.90;62.30;;;;;;6253799;23;20197;-96
2024/01/13 13:06:26;;;;;;;110.37;77.63;;;9.90;61.40;;;;;;6251380;23;20616;-96
2024/01/13 13:08:56;;;;;;;127.97;99.27;;;9.90;61.00;;;;;;6253565;23;20164;-96
2024/01/13 13:11:30;;;;;;;112.47;60.60;;;10.00;59.90;;;;;;6268368;22;20156;-96
2024/01/13 13:14:02;;;;;;;111.73;61.90;;;9.90;61.10;;;;;;6268962;22;20237;-96
2024/01/13 13:16:31;;;;;;;108.13;59.03;;;9.90;60.80;;;;;;6266235;23;20216;-96
2024/01/13 13:18:59;;;;;;;73.13;56.43;;;9.90;60.70;;;;;;6260681;23;20623;-96
2024/01/13 13:21:37;;;;;;;76.90;56.57;;;9.90;60.60;;;;;;6250906;23;20223;-96
2024/01/13 13:24:15;;;;;;;119.67;80.87;;;9.90;60.70;;;;;;6250154;23;20171;-96
2024/01/13 13:26:49;;;;;;;100.30;83.10;;;9.90;60.70;;;;;;6250988;23;20174;-96
2024/01/13 13:29:21;;;;;;;117.80;80.60;;;8.70;60.00;;;;;;6248277;22;20225;-96
2024/01/13 13:31:48;;;;;;;123.37;96.00;;;9.90;60.80;;;;;;6247715;22;20265;-96
2024/01/13 13:34:17;;;;;;;96.50;60.10;;;9.90;60.80;;;;;;6245771;23;20209;-96
2024/01/13 13:36:46;;;;;;;143.87;107.97;;;9.90;61.50;;;;;;6246599;23;20217;-96
2024/01/13 13:39:19;;;;;;;96.97;75.80;;;9.90;61.30;;;;;;6247139;23;20599;-96
2024/01/13 13:42:10;;;;;;;97.17;68.77;;;8.40;59.70;;;;;;6255629;23;20175;-96
2024/01/13 13:48:09;;;;;;;103.53;58.23;;;10.40;60.70;;;;;;6247065;23;20791;-95
2024/01/13 13:50:44;;;;;;;129.83;105.67;;;9.90;61.00;;;;;;6269380;22;20155;-96
2024/01/13 13:56:28;;;;;;;74.00;58.73;;;9.80;61.20;;;;;;6264415;23;20178;-96
2024/01/13 14:02:19;;;;;;;102.97;58.33;;;9.40;60.60;;;;;;6222244;22;20342;-96
2024/01/13 14:05:07;;;;;;;77.33;47.03;;;9.70;61.10;;;;;;6226707;23;20204;-96
2024/01/13 14:07:43;;;;;;;102.13;63.97;;;9.80;61.10;;;;;;6226401;23;20185;-96
2024/01/13 14:10:25;;;;;;;147.57;77.33;;;9.90;61.00;;;;;;6226331;23;20198;-96
2024/01/13 14:12:56;;;;;;;113.53;78.33;;;9.80;61.50;;;;;;6225586;23;20360;-96
2024/01/13 14:19:03;;;;;;;124.27;62.27;;;9.70;60.60;;;;;;6225024;23;20229;-96
2024/01/13 14:25:16;;;;;;;134.00;58.53;;;9.30;60.40;;;;;;6112226;23;20258;-96
2024/01/13 14:27:55;;;;;;;108.60;56.73;;;9.70;60.60;;;;;;6227685;23;20254;-96
2024/01/13 14:31:02;;;;;;;108.67;57.67;;;9.80;60.70;;;;;;6223904;23;20192;-96
2024/01/13 15:04:31;;;;;;;155.60;70.43;;;8.60;59.80;;;;;;6024778;23;20225;-95
2024/01/13 15:07:02;;;;;;;106.20;54.50;;;10.30;60.30;;;;;;6093601;23;20631;-95
2024/01/13 15:12:29;;;;;;;97.40;62.63;;;9.40;60.50;;;;;;6124964;23;20188;-95
2024/01/13 16:19:53;;;;;;;106.47;77.67;;;9.80;62.00;;;;;;5925727;24;20608;-96
2024/01/13 16:22:32;;;;;;;109.70;68.60;;;9.10;61.40;;;;;;5927455;24;20204;-96
2024/01/13 16:32:29;;;;;;;184.17;100.23;;;9.00;62.10;;;;;;5986722;23;20205;-96
2024/01/13 16:48:29;;;;;;;119.30;96.50;;;8.90;61.90;;;;;;6166498;23;20186;-96
2024/01/13 16:51:09;;;;;;;117.27;72.57;;;8.90;61.90;;;;;;6257540;23;20185;-96
